sensor_id;sensor_type;location;lat;lon;timestamp;P1;durP1;ratioP1;P2;durP2;ratioP2
68284;SDS011;55114;52.052;5.238;2022-11-09T00:01:02;5.95;;;1.77;;
68284;SDS011;55114;52.052;5.238;2022-11-09T00:03:30;6.32;;;1.75;;
68284;SDS011;55114;52.052;5.238;2022-11-09T00:05:58;7.50;;;1.90;;
68284;SDS011;55114;52.052;5.238;2022-11-09T00:08:26;6.50;;;1.50;;
68284;SDS011;55114;52.052;5.238;2022-11-09T00:10:53;5.38;;;1.85;;
68284;SDS011;55114;52.052;5.238;2022-11-09T00:13:21;5.40;;;1.77;;
68284;SDS011;55114;52.052;5.238;2022-11-09T00:15:48;8.35;;;1.77;;
68284;SDS011;55114;52.052;5.238;2022-11-09T00:18:17;7.37;;;1.60;;
68284;SDS011;55114;52.052;5.238;2022-11-09T00:20:44;6.40;;;1.90;;
68284;SDS011;55114;52.052;5.238;2022-11-09T00:23:14;7.45;;;1.60;;
68284;SDS011;55114;52.052;5.238;2022-11-09T00:25:42;6.22;;;1.70;;
68284;SDS011;55114;52.052;5.238;2022-11-09T00:28:09;8.82;;;1.77;;
68284;SDS011;55114;52.052;5.238;2022-11-09T00:30:36;8.40;;;1.80;;
68284;SDS011;55114;52.052;5.238;2022-11-09T00:33:04;6.57;;;1.52;;
68284;SDS011;55114;52.052;5.238;2022-11-09T00:35:31;9.55;;;1.80;;
68284;SDS011;55114;52.052;5.238;2022-11-09T00:37:58;6.32;;;1.60;;
68284;SDS011;55114;52.052;5.238;2022-11-09T00:40:25;5.97;;;1.50;;
68284;SDS011;55114;52.052;5.238;2022-11-09T00:42:53;8.97;;;1.47;;
68284;SDS011;55114;52.052;5.238;2022-11-09T00:45:20;6.15;;;1.40;;
68284;SDS011;55114;52.052;5.238;2022-11-09T00:47:47;7.57;;;1.70;;
68284;SDS011;55114;52.052;5.238;2022-11-09T00:50:15;5.32;;;1.50;;
68284;SDS011;55114;52.052;5.238;2022-11-09T00:52:42;6.63;;;1.40;;
68284;SDS011;55114;52.052;5.238;2022-11-09T00:55:09;4.50;;;1.50;;
68284;SDS011;55114;52.052;5.238;2022-11-09T00:57:36;6.22;;;1.13;;
68284;SDS011;55114;52.052;5.238;2022-11-09T01:00:04;7.13;;;1.38;;
68284;SDS011;55114;52.052;5.238;2022-11-09T01:02:31;6.20;;;1.38;;
68284;SDS011;55114;52.052;5.238;2022-11-09T01:04:58;7.22;;;1.42;;
68284;SDS011;55114;52.052;5.238;2022-11-09T01:07:26;5.00;;;1.40;;
68284;SDS011;55114;52.052;5.238;2022-11-09T01:09:53;8.50;;;1.23;;
68284;SDS011;55114;52.052;5.238;2022-11-09T01:12:20;6.35;;;1.40;;
68284;SDS011;55114;52.052;5.238;2022-11-09T01:14:48;7.22;;;1.30;;
68284;SDS011;55114;52.052;5.238;2022-11-09T01:17:15;6.47;;;1.42;;
68284;SDS011;55114;52.052;5.238;2022-11-09T01:19:42;10.57;;;1.30;;
68284;SDS011;55114;52.052;5.238;2022-11-09T01:22:10;6.55;;;1.23;;
68284;SDS011;55114;52.052;5.238;2022-11-09T01:24:39;5.68;;;1.20;;
68284;SDS011;55114;52.052;5.238;2022-11-09T01:27:06;5.47;;;1.30;;
68284;SDS011;55114;52.052;5.238;2022-11-09T01:29:34;5.53;;;1.25;;
68284;SDS011;55114;52.052;5.238;2022-11-09T01:32:02;13.00;;;1.40;;
68284;SDS011;55114;52.052;5.238;2022-11-09T01:34:29;8.63;;;1.42;;
68284;SDS011;55114;52.052;5.238;2022-11-09T01:36:56;5.90;;;1.20;;
68284;SDS011;55114;52.052;5.238;2022-11-09T01:39:24;7.50;;;1.45;;
68284;SDS011;55114;52.052;5.238;2022-11-09T01:41:51;6.93;;;1.40;;
68284;SDS011;55114;52.052;5.238;2022-11-09T01:44:18;4.90;;;1.37;;
68284;SDS011;55114;52.052;5.238;2022-11-09T01:46:50;6.10;;;1.10;;
68284;SDS011;55114;52.052;5.238;2022-11-09T01:49:38;5.75;;;1.00;;
68284;SDS011;55114;52.052;5.238;2022-11-09T01:52:28;8.25;;;1.35;;
68284;SDS011;55114;52.052;5.238;2022-11-09T01:54:58;5.78;;;1.30;;
68284;SDS011;55114;52.052;5.238;2022-11-09T01:57:30;8.37;;;1.70;;
68284;SDS011;55114;52.052;5.238;2022-11-09T02:00:05;7.40;;;1.20;;
68284;SDS011;55114;52.052;5.238;2022-11-09T02:02:33;6.80;;;1.08;;
68284;SDS011;55114;52.052;5.238;2022-11-09T02:05:07;7.07;;;1.15;;
68284;SDS011;55114;52.052;5.238;2022-11-09T02:07:37;6.93;;;1.50;;
68284;SDS011;55114;52.052;5.238;2022-11-09T02:10:25;8.77;;;1.30;;
68284;SDS011;55114;52.052;5.238;2022-11-09T02:12:54;8.52;;;1.70;;
68284;SDS011;55114;52.052;5.238;2022-11-09T02:15:26;7.45;;;1.75;;
68284;SDS011;55114;52.052;5.238;2022-11-09T02:17:55;6.35;;;1.58;;
68284;SDS011;55114;52.052;5.238;2022-11-09T02:20:22;6.75;;;1.58;;
68284;SDS011;55114;52.052;5.238;2022-11-09T02:22:50;8.53;;;1.10;;
68284;SDS011;55114;52.052;5.238;2022-11-09T02:25:17;6.25;;;1.45;;
68284;SDS011;55114;52.052;5.238;2022-11-09T02:27:46;9.32;;;1.85;;
68284;SDS011;55114;52.052;5.238;2022-11-09T02:30:15;9.35;;;1.80;;
68284;SDS011;55114;52.052;5.238;2022-11-09T02:32:42;6.60;;;1.50;;
68284;SDS011;55114;52.052;5.238;2022-11-09T02:35:09;10.97;;;1.47;;
68284;SDS011;55114;52.052;5.238;2022-11-09T02:37:38;9.93;;;1.50;;
68284;SDS011;55114;52.052;5.238;2022-11-09T02:40:06;5.65;;;1.50;;
68284;SDS011;55114;52.052;5.238;2022-11-09T02:42:38;9.18;;;1.70;;
68284;SDS011;55114;52.052;5.238;2022-11-09T02:45:09;6.13;;;1.83;;
68284;SDS011;55114;52.052;5.238;2022-11-09T02:47:36;6.47;;;1.80;;
68284;SDS011;55114;52.052;5.238;2022-11-09T02:50:04;10.30;;;2.00;;
68284;SDS011;55114;52.052;5.238;2022-11-09T02:52:31;7.40;;;1.60;;
68284;SDS011;55114;52.052;5.238;2022-11-09T02:54:59;6.75;;;1.60;;
68284;SDS011;55114;52.052;5.238;2022-11-09T02:57:26;6.90;;;1.83;;
68284;SDS011;55114;52.052;5.238;2022-11-09T02:59:54;5.37;;;1.60;;
68284;SDS011;55114;52.052;5.238;2022-11-09T03:02:21;7.60;;;1.85;;
68284;SDS011;55114;52.052;5.238;2022-11-09T03:04:49;6.07;;;1.67;;
68284;SDS011;55114;52.052;5.238;2022-11-09T03:07:17;6.05;;;1.85;;
68284;SDS011;55114;52.052;5.238;2022-11-09T03:09:44;5.50;;;1.70;;
68284;SDS011;55114;52.052;5.238;2022-11-09T03:12:11;6.50;;;1.80;;
68284;SDS011;55114;52.052;5.238;2022-11-09T03:14:55;6.95;;;1.55;;
68284;SDS011;55114;52.052;5.238;2022-11-09T03:17:22;5.10;;;1.90;;
68284;SDS011;55114;52.052;5.238;2022-11-09T03:19:49;5.75;;;1.70;;
68284;SDS011;55114;52.052;5.238;2022-11-09T03:22:16;7.57;;;1.80;;
68284;SDS011;55114;52.052;5.238;2022-11-09T03:24:44;7.27;;;1.80;;
68284;SDS011;55114;52.052;5.238;2022-11-09T03:27:11;6.15;;;1.60;;
68284;SDS011;55114;52.052;5.238;2022-11-09T03:29:38;11.82;;;1.90;;
68284;SDS011;55114;52.052;5.238;2022-11-09T03:32:06;7.93;;;1.48;;
68284;SDS011;55114;52.052;5.238;2022-11-09T03:34:33;6.18;;;1.45;;
68284;SDS011;55114;52.052;5.238;2022-11-09T03:37:00;8.87;;;1.50;;
68284;SDS011;55114;52.052;5.238;2022-11-09T03:39:28;5.90;;;1.50;;
68284;SDS011;55114;52.052;5.238;2022-11-09T03:41:55;6.88;;;1.40;;
68284;SDS011;55114;52.052;5.238;2022-11-09T03:44:22;9.82;;;1.52;;
68284;SDS011;55114;52.052;5.238;2022-11-09T03:46:49;5.32;;;1.55;;
68284;SDS011;55114;52.052;5.238;2022-11-09T03:49:17;6.73;;;1.50;;
68284;SDS011;55114;52.052;5.238;2022-11-09T03:51:44;6.28;;;1.30;;
68284;SDS011;55114;52.052;5.238;2022-11-09T03:54:11;6.07;;;1.60;;
68284;SDS011;55114;52.052;5.238;2022-11-09T03:56:39;6.40;;;1.63;;
68284;SDS011;55114;52.052;5.238;2022-11-09T03:59:07;6.75;;;1.70;;
68284;SDS011;55114;52.052;5.238;2022-11-09T04:01:34;6.23;;;1.40;;
68284;SDS011;55114;52.052;5.238;2022-11-09T04:04:01;7.18;;;1.58;;
68284;SDS011;55114;52.052;5.238;2022-11-09T04:06:29;7.88;;;1.60;;
68284;SDS011;55114;52.052;5.238;2022-11-09T04:08:56;9.63;;;1.45;;
68284;SDS011;55114;52.052;5.238;2022-11-09T04:11:23;6.50;;;1.67;;
68284;SDS011;55114;52.052;5.238;2022-11-09T04:13:51;9.00;;;1.40;;
68284;SDS011;55114;52.052;5.238;2022-11-09T04:16:21;7.10;;;1.38;;
68284;SDS011;55114;52.052;5.238;2022-11-09T04:18:48;4.40;;;1.25;;
68284;SDS011;55114;52.052;5.238;2022-11-09T04:21:16;7.90;;;1.30;;
68284;SDS011;55114;52.052;5.238;2022-11-09T04:23:48;5.97;;;1.60;;
68284;SDS011;55114;52.052;5.238;2022-11-09T04:26:16;8.37;;;1.43;;
68284;SDS011;55114;52.052;5.238;2022-11-09T04:28:46;5.20;;;1.45;;
68284;SDS011;55114;52.052;5.238;2022-11-09T04:33:43;7.32;;;1.50;;
68284;SDS011;55114;52.052;5.238;2022-11-09T04:36:10;6.55;;;1.30;;
68284;SDS011;55114;52.052;5.238;2022-11-09T04:38:38;8.77;;;1.50;;
68284;SDS011;55114;52.052;5.238;2022-11-09T04:41:05;6.97;;;1.30;;
68284;SDS011;55114;52.052;5.238;2022-11-09T04:43:33;5.15;;;1.10;;
68284;SDS011;55114;52.052;5.238;2022-11-09T04:46:01;7.30;;;1.25;;
68284;SDS011;55114;52.052;5.238;2022-11-09T04:48:32;9.55;;;1.30;;
68284;SDS011;55114;52.052;5.238;2022-11-09T04:51:03;7.00;;;1.60;;
68284;SDS011;55114;52.052;5.238;2022-11-09T04:53:33;5.47;;;1.10;;
68284;SDS011;55114;52.052;5.238;2022-11-09T04:56:00;9.82;;;1.58;;
68284;SDS011;55114;52.052;5.238;2022-11-09T04:58:28;5.85;;;1.10;;
68284;SDS011;55114;52.052;5.238;2022-11-09T05:01:09;8.25;;;1.38;;
68284;SDS011;55114;52.052;5.238;2022-11-09T05:03:38;4.53;;;1.07;;
68284;SDS011;55114;52.052;5.238;2022-11-09T05:06:05;5.53;;;1.13;;
68284;SDS011;55114;52.052;5.238;2022-11-09T05:08:52;6.85;;;1.60;;
68284;SDS011;55114;52.052;5.238;2022-11-09T05:11:21;6.00;;;1.30;;
68284;SDS011;55114;52.052;5.238;2022-11-09T05:13:49;7.13;;;1.42;;
68284;SDS011;55114;52.052;5.238;2022-11-09T05:16:17;7.30;;;1.10;;
68284;SDS011;55114;52.052;5.238;2022-11-09T05:18:50;5.72;;;1.05;;
68284;SDS011;55114;52.052;5.238;2022-11-09T05:21:17;9.20;;;1.20;;
68284;SDS011;55114;52.052;5.238;2022-11-09T05:23:45;9.88;;;1.83;;
68284;SDS011;55114;52.052;5.238;2022-11-09T05:26:25;6.82;;;1.40;;
68284;SDS011;55114;52.052;5.238;2022-11-09T05:28:52;6.57;;;0.97;;
68284;SDS011;55114;52.052;5.238;2022-11-09T05:31:20;10.93;;;1.80;;
68284;SDS011;55114;52.052;5.238;2022-11-09T05:33:48;8.38;;;1.17;;
68284;SDS011;55114;52.052;5.238;2022-11-09T05:36:16;6.60;;;1.15;;
68284;SDS011;55114;52.052;5.238;2022-11-09T05:38:43;7.25;;;1.50;;
68284;SDS011;55114;52.052;5.238;2022-11-09T05:41:10;8.20;;;1.13;;
68284;SDS011;55114;52.052;5.238;2022-11-09T05:43:37;6.32;;;1.40;;
68284;SDS011;55114;52.052;5.238;2022-11-09T05:46:05;5.10;;;1.20;;
68284;SDS011;55114;52.052;5.238;2022-11-09T05:48:32;8.55;;;1.52;;
68284;SDS011;55114;52.052;5.238;2022-11-09T05:51:00;8.68;;;1.67;;
68284;SDS011;55114;52.052;5.238;2022-11-09T05:53:27;10.83;;;1.23;;
68284;SDS011;55114;52.052;5.238;2022-11-09T05:55:54;6.57;;;1.38;;
68284;SDS011;55114;52.052;5.238;2022-11-09T05:58:22;5.43;;;1.45;;
68284;SDS011;55114;52.052;5.238;2022-11-09T06:00:49;9.50;;;1.27;;
68284;SDS011;55114;52.052;5.238;2022-11-09T06:03:16;8.45;;;1.42;;
68284;SDS011;55114;52.052;5.238;2022-11-09T06:05:44;5.73;;;1.40;;
68284;SDS011;55114;52.052;5.238;2022-11-09T06:08:13;6.15;;;1.50;;
68284;SDS011;55114;52.052;5.238;2022-11-09T06:10:41;10.77;;;1.35;;
68284;SDS011;55114;52.052;5.238;2022-11-09T06:13:08;9.00;;;1.80;;
68284;SDS011;55114;52.052;5.238;2022-11-09T06:15:35;6.03;;;1.60;;
68284;SDS011;55114;52.052;5.238;2022-11-09T06:18:03;6.97;;;1.50;;
68284;SDS011;55114;52.052;5.238;2022-11-09T06:20:30;9.10;;;1.67;;
68284;SDS011;55114;52.052;5.238;2022-11-09T06:23:00;9.38;;;1.90;;
68284;SDS011;55114;52.052;5.238;2022-11-09T06:25:30;9.15;;;1.52;;
68284;SDS011;55114;52.052;5.238;2022-11-09T06:27:58;7.07;;;1.80;;
68284;SDS011;55114;52.052;5.238;2022-11-09T06:30:25;8.13;;;1.80;;
68284;SDS011;55114;52.052;5.238;2022-11-09T06:32:57;10.35;;;1.67;;
68284;SDS011;55114;52.052;5.238;2022-11-09T06:35:25;7.75;;;1.70;;
68284;SDS011;55114;52.052;5.238;2022-11-09T06:37:54;7.28;;;1.60;;
68284;SDS011;55114;52.052;5.238;2022-11-09T06:40:21;11.57;;;1.95;;
68284;SDS011;55114;52.052;5.238;2022-11-09T06:42:48;8.00;;;1.50;;
68284;SDS011;55114;52.052;5.238;2022-11-09T06:45:16;6.43;;;1.45;;
68284;SDS011;55114;52.052;5.238;2022-11-09T06:47:43;6.50;;;1.77;;
68284;SDS011;55114;52.052;5.238;2022-11-09T06:50:10;6.95;;;1.50;;
68284;SDS011;55114;52.052;5.238;2022-11-09T06:52:37;6.18;;;1.30;;
68284;SDS011;55114;52.052;5.238;2022-11-09T06:55:05;8.13;;;1.43;;
68284;SDS011;55114;52.052;5.238;2022-11-09T06:57:33;5.72;;;1.42;;
68284;SDS011;55114;52.052;5.238;2022-11-09T07:00:00;8.27;;;1.58;;
68284;SDS011;55114;52.052;5.238;2022-11-09T07:02:27;10.88;;;1.60;;
68284;SDS011;55114;52.052;5.238;2022-11-09T07:04:55;7.32;;;1.90;;
68284;SDS011;55114;52.052;5.238;2022-11-09T07:07:22;9.87;;;2.20;;
68284;SDS011;55114;52.052;5.238;2022-11-09T07:09:53;10.98;;;1.90;;
68284;SDS011;55114;52.052;5.238;2022-11-09T07:12:21;9.05;;;1.70;;
68284;SDS011;55114;52.052;5.238;2022-11-09T07:14:48;8.18;;;2.03;;
68284;SDS011;55114;52.052;5.238;2022-11-09T07:17:15;9.57;;;1.77;;
68284;SDS011;55114;52.052;5.238;2022-11-09T07:19:42;9.50;;;2.47;;
68284;SDS011;55114;52.052;5.238;2022-11-09T07:22:09;10.68;;;2.08;;
68284;SDS011;55114;52.052;5.238;2022-11-09T07:24:36;7.63;;;1.80;;
68284;SDS011;55114;52.052;5.238;2022-11-09T07:27:04;7.70;;;1.83;;
68284;SDS011;55114;52.052;5.238;2022-11-09T07:29:31;7.70;;;1.90;;
68284;SDS011;55114;52.052;5.238;2022-11-09T07:31:58;9.03;;;1.90;;
68284;SDS011;55114;52.052;5.238;2022-11-09T07:34:25;12.02;;;1.73;;
68284;SDS011;55114;52.052;5.238;2022-11-09T07:36:52;8.80;;;1.55;;
68284;SDS011;55114;52.052;5.238;2022-11-09T07:39:20;8.07;;;1.98;;
68284;SDS011;55114;52.052;5.238;2022-11-09T07:41:47;9.00;;;1.90;;
68284;SDS011;55114;52.052;5.238;2022-11-09T07:44:15;6.07;;;1.90;;
68284;SDS011;55114;52.052;5.238;2022-11-09T07:46:45;11.15;;;2.35;;
68284;SDS011;55114;52.052;5.238;2022-11-09T07:49:13;9.68;;;2.20;;
68284;SDS011;55114;52.052;5.238;2022-11-09T07:51:41;10.27;;;2.30;;
68284;SDS011;55114;52.052;5.238;2022-11-09T07:54:09;15.10;;;4.05;;
68284;SDS011;55114;52.052;5.238;2022-11-09T07:56:36;12.73;;;2.30;;
68284;SDS011;55114;52.052;5.238;2022-11-09T07:59:04;11.15;;;2.22;;
68284;SDS011;55114;52.052;5.238;2022-11-09T08:01:31;7.93;;;1.92;;
68284;SDS011;55114;52.052;5.238;2022-11-09T08:03:58;7.25;;;1.73;;
68284;SDS011;55114;52.052;5.238;2022-11-09T08:06:26;11.10;;;1.88;;
68284;SDS011;55114;52.052;5.238;2022-11-09T08:08:54;8.63;;;1.90;;
68284;SDS011;55114;52.052;5.238;2022-11-09T08:11:22;10.23;;;2.60;;
68284;SDS011;55114;52.052;5.238;2022-11-09T08:13:49;8.07;;;1.80;;
68284;SDS011;55114;52.052;5.238;2022-11-09T08:16:16;8.10;;;2.00;;
68284;SDS011;55114;52.052;5.238;2022-11-09T08:18:44;8.18;;;1.80;;
68284;SDS011;55114;52.052;5.238;2022-11-09T08:21:11;8.37;;;1.77;;
68284;SDS011;55114;52.052;5.238;2022-11-09T08:23:38;8.68;;;1.60;;
68284;SDS011;55114;52.052;5.238;2022-11-09T08:26:05;8.82;;;2.10;;
68284;SDS011;55114;52.052;5.238;2022-11-09T08:28:33;14.25;;;2.13;;
68284;SDS011;55114;52.052;5.238;2022-11-09T08:31:01;11.93;;;1.90;;
68284;SDS011;55114;52.052;5.238;2022-11-09T08:33:30;11.33;;;2.20;;
68284;SDS011;55114;52.052;5.238;2022-11-09T08:35:57;12.30;;;1.90;;
68284;SDS011;55114;52.052;5.238;2022-11-09T08:38:24;8.52;;;2.22;;
68284;SDS011;55114;52.052;5.238;2022-11-09T08:40:56;8.77;;;2.15;;
68284;SDS011;55114;52.052;5.238;2022-11-09T08:43:24;8.43;;;2.22;;
68284;SDS011;55114;52.052;5.238;2022-11-09T08:45:54;10.13;;;2.33;;
68284;SDS011;55114;52.052;5.238;2022-11-09T08:48:21;8.77;;;2.42;;
68284;SDS011;55114;52.052;5.238;2022-11-09T08:50:53;6.90;;;2.00;;
68284;SDS011;55114;52.052;5.238;2022-11-09T08:53:21;8.07;;;2.33;;
68284;SDS011;55114;52.052;5.238;2022-11-09T08:55:49;8.05;;;2.00;;
68284;SDS011;55114;52.052;5.238;2022-11-09T08:58:16;11.70;;;2.00;;
68284;SDS011;55114;52.052;5.238;2022-11-09T09:00:44;4.97;;;2.03;;
68284;SDS011;55114;52.052;5.238;2022-11-09T09:03:11;9.82;;;2.00;;
68284;SDS011;55114;52.052;5.238;2022-11-09T09:05:39;8.73;;;2.00;;
68284;SDS011;55114;52.052;5.238;2022-11-09T09:08:06;11.30;;;2.20;;
68284;SDS011;55114;52.052;5.238;2022-11-09T09:10:40;10.33;;;2.40;;
68284;SDS011;55114;52.052;5.238;2022-11-09T09:13:07;9.50;;;2.20;;
68284;SDS011;55114;52.052;5.238;2022-11-09T09:15:37;8.32;;;2.20;;
68284;SDS011;55114;52.052;5.238;2022-11-09T09:18:05;10.50;;;2.30;;
68284;SDS011;55114;52.052;5.238;2022-11-09T09:20:32;8.45;;;2.15;;
68284;SDS011;55114;52.052;5.238;2022-11-09T09:23:03;9.50;;;2.47;;
68284;SDS011;55114;52.052;5.238;2022-11-09T09:25:30;8.82;;;2.25;;
68284;SDS011;55114;52.052;5.238;2022-11-09T09:27:57;8.43;;;2.30;;
68284;SDS011;55114;52.052;5.238;2022-11-09T09:30:25;10.25;;;2.30;;
68284;SDS011;55114;52.052;5.238;2022-11-09T09:32:56;8.15;;;2.38;;
68284;SDS011;55114;52.052;5.238;2022-11-09T09:35:26;6.23;;;2.50;;
68284;SDS011;55114;52.052;5.238;2022-11-09T09:45:57;11.82;;;2.40;;
68284;SDS011;55114;52.052;5.238;2022-11-09T09:48:31;10.27;;;2.70;;
68284;SDS011;55114;52.052;5.238;2022-11-09T09:51:10;10.60;;;2.47;;
68284;SDS011;55114;52.052;5.238;2022-11-09T09:53:48;10.82;;;2.72;;
68284;SDS011;55114;52.052;5.238;2022-11-09T09:56:32;9.38;;;2.50;;
68284;SDS011;55114;52.052;5.238;2022-11-09T09:59:03;9.32;;;2.50;;
68284;SDS011;55114;52.052;5.238;2022-11-09T10:01:38;10.30;;;2.50;;
68284;SDS011;55114;52.052;5.238;2022-11-09T10:04:16;9.13;;;2.17;;
68284;SDS011;55114;52.052;5.238;2022-11-09T10:06:54;9.98;;;2.90;;
68284;SDS011;55114;52.052;5.238;2022-11-09T10:12:04;7.97;;;2.50;;
68284;SDS011;55114;52.052;5.238;2022-11-09T10:20:05;10.63;;;2.83;;
68284;SDS011;55114;52.052;5.238;2022-11-09T10:25:19;8.77;;;2.80;;
68284;SDS011;55114;52.052;5.238;2022-11-09T10:28:09;8.30;;;2.97;;
68284;SDS011;55114;52.052;5.238;2022-11-09T10:30:38;8.02;;;2.50;;
68284;SDS011;55114;52.052;5.238;2022-11-09T10:35:43;10.63;;;2.70;;
68284;SDS011;55114;52.052;5.238;2022-11-09T10:38:16;9.02;;;2.42;;
68284;SDS011;55114;52.052;5.238;2022-11-09T10:40:51;10.83;;;2.67;;
68284;SDS011;55114;52.052;5.238;2022-11-09T10:43:19;12.15;;;2.28;;
68284;SDS011;55114;52.052;5.238;2022-11-09T10:45:46;9.13;;;2.50;;
68284;SDS011;55114;52.052;5.238;2022-11-09T10:48:31;7.10;;;2.15;;
68284;SDS011;55114;52.052;5.238;2022-11-09T10:51:03;9.40;;;2.30;;
68284;SDS011;55114;52.052;5.238;2022-11-09T10:53:32;8.70;;;2.20;;
68284;SDS011;55114;52.052;5.238;2022-11-09T10:58:31;7.97;;;2.13;;
68284;SDS011;55114;52.052;5.238;2022-11-09T11:01:11;16.42;;;2.60;;
68284;SDS011;55114;52.052;5.238;2022-11-09T11:03:41;7.57;;;2.63;;
68284;SDS011;55114;52.052;5.238;2022-11-09T11:06:14;8.67;;;2.20;;
68284;SDS011;55114;52.052;5.238;2022-11-09T11:08:42;8.65;;;2.28;;
68284;SDS011;55114;52.052;5.238;2022-11-09T11:14:10;9.40;;;2.13;;
68284;SDS011;55114;52.052;5.238;2022-11-09T11:16:46;6.47;;;2.10;;
68284;SDS011;55114;52.052;5.238;2022-11-09T11:19:26;10.97;;;2.10;;
68284;SDS011;55114;52.052;5.238;2022-11-09T11:24:55;5.18;;;1.90;;
68284;SDS011;55114;52.052;5.238;2022-11-09T11:32:24;8.93;;;1.90;;
68284;SDS011;55114;52.052;5.238;2022-11-09T11:34:51;6.03;;;1.70;;
68284;SDS011;55114;52.052;5.238;2022-11-09T11:40:00;8.32;;;1.85;;
68284;SDS011;55114;52.052;5.238;2022-11-09T11:45:06;5.50;;;1.60;;
68284;SDS011;55114;52.052;5.238;2022-11-09T12:01:34;5.03;;;1.50;;
68284;SDS011;55114;52.052;5.238;2022-11-09T12:04:14;5.85;;;1.80;;
68284;SDS011;55114;52.052;5.238;2022-11-09T12:06:53;6.28;;;1.70;;
68284;SDS011;55114;52.052;5.238;2022-11-09T12:09:28;9.75;;;1.90;;
68284;SDS011;55114;52.052;5.238;2022-11-09T12:14:45;7.23;;;2.07;;
68284;SDS011;55114;52.052;5.238;2022-11-09T12:17:28;8.10;;;2.10;;
68284;SDS011;55114;52.052;5.238;2022-11-09T12:20:13;6.45;;;1.88;;
68284;SDS011;55114;52.052;5.238;2022-11-09T12:28:17;6.30;;;2.43;;
68284;SDS011;55114;52.052;5.238;2022-11-09T12:30:55;7.38;;;1.90;;
68284;SDS011;55114;52.052;5.238;2022-11-09T12:33:31;7.30;;;2.20;;
68284;SDS011;55114;52.052;5.238;2022-11-09T12:36:12;8.43;;;2.53;;
68284;SDS011;55114;52.052;5.238;2022-11-09T12:38:59;8.75;;;2.38;;
68284;SDS011;55114;52.052;5.238;2022-11-09T12:41:30;7.67;;;2.30;;
68284;SDS011;55114;52.052;5.238;2022-11-09T12:44:08;6.70;;;2.10;;
68284;SDS011;55114;52.052;5.238;2022-11-09T12:46:43;11.88;;;2.72;;
68284;SDS011;55114;52.052;5.238;2022-11-09T12:49:26;7.35;;;2.00;;
68284;SDS011;55114;52.052;5.238;2022-11-09T12:51:56;8.10;;;2.03;;
68284;SDS011;55114;52.052;5.238;2022-11-09T12:54:24;8.23;;;2.07;;
68284;SDS011;55114;52.052;5.238;2022-11-09T12:57:02;7.10;;;1.88;;
68284;SDS011;55114;52.052;5.238;2022-11-09T13:01:58;6.95;;;1.80;;
68284;SDS011;55114;52.052;5.238;2022-11-09T13:04:26;7.50;;;1.70;;
68284;SDS011;55114;52.052;5.238;2022-11-09T13:09:30;5.55;;;1.60;;
68284;SDS011;55114;52.052;5.238;2022-11-09T13:15:27;6.10;;;1.60;;
68284;SDS011;55114;52.052;5.238;2022-11-09T13:18:02;6.32;;;1.60;;
68284;SDS011;55114;52.052;5.238;2022-11-09T13:32:04;5.55;;;0.90;;
68284;SDS011;55114;52.052;5.238;2022-11-09T13:37:35;4.50;;;0.98;;
68284;SDS011;55114;52.052;5.238;2022-11-09T13:40:49;4.57;;;0.93;;
68284;SDS011;55114;52.052;5.238;2022-11-09T13:42:55;4.63;;;1.30;;
68284;SDS011;55114;52.052;5.238;2022-11-09T13:45:24;6.28;;;1.30;;
68284;SDS011;55114;52.052;5.238;2022-11-09T13:47:52;5.03;;;0.90;;
68284;SDS011;55114;52.052;5.238;2022-11-09T13:50:24;7.63;;;1.02;;
68284;SDS011;55114;52.052;5.238;2022-11-09T13:52:54;4.53;;;0.98;;
68284;SDS011;55114;52.052;5.238;2022-11-09T13:55:24;4.70;;;0.85;;
68284;SDS011;55114;52.052;5.238;2022-11-09T13:57:52;3.13;;;0.90;;
68284;SDS011;55114;52.052;5.238;2022-11-09T14:00:22;5.83;;;1.10;;
68284;SDS011;55114;52.052;5.238;2022-11-09T14:02:54;5.15;;;0.85;;
68284;SDS011;55114;52.052;5.238;2022-11-09T14:05:22;6.93;;;1.00;;
68284;SDS011;55114;52.052;5.238;2022-11-09T14:07:49;5.90;;;1.20;;
68284;SDS011;55114;52.052;5.238;2022-11-09T14:13:11;5.93;;;1.37;;
68284;SDS011;55114;52.052;5.238;2022-11-09T14:18:29;4.75;;;1.08;;
68284;SDS011;55114;52.052;5.238;2022-11-09T14:21:03;3.75;;;1.02;;
68284;SDS011;55114;52.052;5.238;2022-11-09T14:23:33;4.53;;;1.17;;
68284;SDS011;55114;52.052;5.238;2022-11-09T14:26:08;6.20;;;1.20;;
68284;SDS011;55114;52.052;5.238;2022-11-09T14:28:36;4.25;;;1.17;;
68284;SDS011;55114;52.052;5.238;2022-11-09T14:31:03;5.30;;;1.20;;
68284;SDS011;55114;52.052;5.238;2022-11-09T14:33:31;4.13;;;1.15;;
68284;SDS011;55114;52.052;5.238;2022-11-09T14:36:01;6.50;;;1.15;;
68284;SDS011;55114;52.052;5.238;2022-11-09T14:38:30;5.57;;;0.87;;
68284;SDS011;55114;52.052;5.238;2022-11-09T14:40:58;5.20;;;1.05;;
68284;SDS011;55114;52.052;5.238;2022-11-09T14:43:26;5.85;;;1.10;;
68284;SDS011;55114;52.052;5.238;2022-11-09T14:45:55;10.65;;;1.48;;
68284;SDS011;55114;52.052;5.238;2022-11-09T14:48:23;4.88;;;1.10;;
68284;SDS011;55114;52.052;5.238;2022-11-09T14:50:51;4.50;;;1.00;;
68284;SDS011;55114;52.052;5.238;2022-11-09T14:53:19;6.53;;;1.52;;
68284;SDS011;55114;52.052;5.238;2022-11-09T14:55:49;5.45;;;1.40;;
68284;SDS011;55114;52.052;5.238;2022-11-09T14:58:17;7.22;;;1.17;;
68284;SDS011;55114;52.052;5.238;2022-11-09T15:01:04;4.35;;;1.00;;
68284;SDS011;55114;52.052;5.238;2022-11-09T15:03:31;6.33;;;1.13;;
68284;SDS011;55114;52.052;5.238;2022-11-09T15:06:05;5.22;;;1.00;;
68284;SDS011;55114;52.052;5.238;2022-11-09T15:08:33;6.95;;;1.08;;
68284;SDS011;55114;52.052;5.238;2022-11-09T15:11:00;8.43;;;1.00;;
68284;SDS011;55114;52.052;5.238;2022-11-09T15:13:33;5.15;;;0.90;;
68284;SDS011;55114;52.052;5.238;2022-11-09T15:16:00;5.63;;;1.10;;
68284;SDS011;55114;52.052;5.238;2022-11-09T15:18:30;7.30;;;1.20;;
68284;SDS011;55114;52.052;5.238;2022-11-09T15:21:14;5.63;;;0.85;;
68284;SDS011;55114;52.052;5.238;2022-11-09T15:23:43;6.20;;;0.90;;
68284;SDS011;55114;52.052;5.238;2022-11-09T15:26:24;3.55;;;0.95;;
68284;SDS011;55114;52.052;5.238;2022-11-09T15:28:55;4.53;;;0.90;;
68284;SDS011;55114;52.052;5.238;2022-11-09T15:31:22;5.88;;;1.23;;
68284;SDS011;55114;52.052;5.238;2022-11-09T15:33:56;4.80;;;0.95;;
68284;SDS011;55114;52.052;5.238;2022-11-09T15:36:32;7.63;;;1.30;;
68284;SDS011;55114;52.052;5.238;2022-11-09T15:41:27;8.53;;;1.20;;
68284;SDS011;55114;52.052;5.238;2022-11-09T15:43:55;5.30;;;0.90;;
68284;SDS011;55114;52.052;5.238;2022-11-09T15:46:24;5.55;;;0.95;;
68284;SDS011;55114;52.052;5.238;2022-11-09T15:48:52;5.25;;;1.00;;
68284;SDS011;55114;52.052;5.238;2022-11-09T15:51:19;4.70;;;1.00;;
68284;SDS011;55114;52.052;5.238;2022-11-09T15:53:46;7.77;;;1.40;;
68284;SDS011;55114;52.052;5.238;2022-11-09T15:56:17;6.72;;;1.40;;
68284;SDS011;55114;52.052;5.238;2022-11-09T15:58:45;11.43;;;1.42;;
68284;SDS011;55114;52.052;5.238;2022-11-09T16:01:14;6.95;;;1.20;;
68284;SDS011;55114;52.052;5.238;2022-11-09T16:03:41;5.90;;;1.23;;
68284;SDS011;55114;52.052;5.238;2022-11-09T16:06:09;6.23;;;1.30;;
68284;SDS011;55114;52.052;5.238;2022-11-09T16:08:38;5.00;;;1.20;;
68284;SDS011;55114;52.052;5.238;2022-11-09T16:11:05;6.50;;;1.08;;
68284;SDS011;55114;52.052;5.238;2022-11-09T16:13:33;8.13;;;0.95;;
68284;SDS011;55114;52.052;5.238;2022-11-09T16:16:04;5.05;;;1.20;;
68284;SDS011;55114;52.052;5.238;2022-11-09T16:18:32;5.57;;;0.93;;
68284;SDS011;55114;52.052;5.238;2022-11-09T16:21:09;6.40;;;1.10;;
68284;SDS011;55114;52.052;5.238;2022-11-09T16:23:37;6.40;;;1.13;;
68284;SDS011;55114;52.052;5.238;2022-11-09T16:26:05;8.35;;;1.40;;
68284;SDS011;55114;52.052;5.238;2022-11-09T16:28:33;8.57;;;1.40;;
68284;SDS011;55114;52.052;5.238;2022-11-09T16:31:02;4.97;;;1.20;;
68284;SDS011;55114;52.052;5.238;2022-11-09T16:33:29;5.22;;;1.02;;
68284;SDS011;55114;52.052;5.238;2022-11-09T16:35:57;10.38;;;1.20;;